Time;durP1;ratioP1;P1;durP2;ratioP2;P2;SDS_P1;SDS_P2;PMS_P1;PMS_P2;Temp;Humidity;BMP_temperature;BMP_pressure;BME280_temperature;BME280_humidity;BME280_pressure;Samples;Min_cycle;Max_cycle;Signal;HPM_P1;HPM_P2
2023/07/05 00:00:25;;;;;;;3.43;1.43;;;16.80;99.90;;;;;;7279233;19;20211;-81
2023/07/05 00:02:54;;;;;;;2.63;1.40;;;16.60;99.90;;;;;;7289365;19;20196;-81
2023/07/05 00:05:20;;;;;;;3.60;1.53;;;16.60;99.90;;;;;;7290116;19;20185;-83
2023/07/05 00:07:46;;;;;;;5.33;1.80;;;16.50;99.90;;;;;;7290819;19;20192;-81
2023/07/05 00:10:15;;;;;;;6.50;1.70;;;16.40;99.90;;;;;;7289753;19;20189;-82
2023/07/05 00:12:42;;;;;;;5.87;2.00;;;16.40;99.90;;;;;;7290149;19;20195;-82
2023/07/05 00:15:08;;;;;;;3.63;1.63;;;16.40;99.90;;;;;;7292779;19;20538;-81
2023/07/05 00:17:35;;;;;;;6.03;1.87;;;16.30;99.90;;;;;;7310567;19;20189;-83
2023/07/05 00:20:02;;;;;;;5.77;2.00;;;16.30;99.90;;;;;;7289857;19;20196;-82
2023/07/05 00:22:28;;;;;;;5.60;1.90;;;16.30;99.90;;;;;;7287491;19;20201;-82
2023/07/05 00:24:55;;;;;;;5.93;2.30;;;16.30;99.90;;;;;;7288373;19;20604;-82
2023/07/05 00:27:21;;;;;;;6.17;1.90;;;16.40;99.90;;;;;;7289449;19;20188;-82
2023/07/05 00:29:47;;;;;;;4.37;1.80;;;16.30;99.90;;;;;;7288121;19;20269;-81
2023/07/05 00:32:13;;;;;;;4.80;1.80;;;16.20;99.90;;;;;;7287946;19;20208;-81
2023/07/05 00:34:39;;;;;;;6.93;1.90;;;16.20;99.90;;;;;;7289416;19;20189;-81
2023/07/05 00:37:04;;;;;;;4.63;1.70;;;16.20;99.90;;;;;;7309867;19;20950;-82
2023/07/05 00:39:30;;;;;;;8.17;2.17;;;16.10;99.90;;;;;;7289136;19;20180;-82
2023/07/05 00:41:56;;;;;;;7.30;2.20;;;16.10;99.90;;;;;;7288590;19;20195;-82
2023/07/05 00:44:22;;;;;;;4.90;2.10;;;16.20;99.90;;;;;;7288061;19;20296;-82
2023/07/05 00:46:53;;;;;;;5.87;2.30;;;16.10;99.90;;;;;;7287054;19;20660;-83
2023/07/05 00:49:21;;;;;;;7.73;2.00;;;16.10;99.90;;;;;;7288016;19;20192;-82
2023/07/05 00:51:57;;;;;;;6.63;2.27;;;16.10;99.90;;;;;;7286704;19;20189;-82
2023/07/05 00:54:34;;;;;;;6.27;2.70;;;16.10;99.90;;;;;;7287994;19;20189;-81
2023/07/05 00:57:09;;;;;;;7.00;2.50;;;16.00;99.90;;;;;;7288241;19;20196;-81
2023/07/05 00:59:50;;;;;;;7.80;2.87;;;16.00;99.90;;;;;;7285058;19;20189;-82
2023/07/05 01:02:16;;;;;;;6.97;2.63;;;15.90;99.90;;;;;;7184909;19;2005695;-82
2023/07/05 01:04:44;;;;;;;7.63;3.20;;;15.80;99.90;;;;;;7287222;19;20180;-80
2023/07/05 01:07:09;;;;;;;9.03;3.23;;;15.70;99.90;;;;;;7287391;19;20554;-81
2023/07/05 01:09:35;;;;;;;7.43;3.03;;;15.70;99.90;;;;;;7308759;19;20203;-82
2023/07/05 01:12:22;;;;;;;9.93;3.47;;;15.60;99.90;;;;;;7287282;19;20683;-82
2023/07/05 01:15:06;;;;;;;10.63;3.80;;;15.60;99.90;;;;;;7185074;19;2006199;-82
2023/07/05 01:17:57;;;;;;;6.70;3.67;;;15.60;99.90;;;;;;7286786;19;20188;-82
2023/07/05 01:20:38;;;;;;;11.50;4.10;;;15.60;99.90;;;;;;7184888;19;2004635;-82
2023/07/05 01:23:13;;;;;;;12.10;3.93;;;15.50;99.90;;;;;;7287823;19;20546;-82
2023/07/05 01:25:52;;;;;;;10.37;4.03;;;15.60;99.90;;;;;;7275930;19;20280;-81
2023/07/05 01:28:37;;;;;;;10.87;3.60;;;15.60;99.90;;;;;;7286608;19;20200;-82
2023/07/05 01:31:33;;;;;;;10.00;3.47;;;15.60;99.90;;;;;;7287078;19;20870;-82
2023/07/05 01:34:09;;;;;;;9.90;3.60;;;15.60;99.90;;;;;;7183369;19;2004578;-82
2023/07/05 01:36:35;;;;;;;10.43;4.33;;;15.60;99.90;;;;;;7286798;19;20185;-81
2023/07/05 01:39:01;;;;;;;9.57;3.80;;;15.70;99.90;;;;;;7285914;19;20264;-82
2023/07/05 01:41:27;;;;;;;10.90;4.13;;;15.70;99.90;;;;;;7286341;19;20197;-82
2023/07/05 01:43:53;;;;;;;11.53;3.77;;;15.70;99.90;;;;;;7286303;19;20208;-82
2023/07/05 01:46:23;;;;;;;16.30;3.80;;;15.70;99.90;;;;;;7286138;19;20194;-81
2023/07/05 01:48:58;;;;;;;9.00;3.60;;;15.60;99.90;;;;;;7286804;19;20200;-81
2023/07/05 01:51:41;;;;;;;13.03;3.97;;;15.50;99.90;;;;;;7286102;19;20223;-81
2023/07/05 01:54:15;;;;;;;9.90;3.80;;;15.50;99.90;;;;;;7287481;19;20203;-81
2023/07/05 01:57:08;;;;;;;12.87;3.97;;;15.50;99.90;;;;;;7265054;19;20700;-81
2023/07/05 01:59:40;;;;;;;10.87;3.83;;;15.50;99.90;;;;;;7283707;19;20206;-81
2023/07/05 02:02:09;;;;;;;10.83;4.07;;;15.50;99.90;;;;;;7285609;19;20301;-82
2023/07/05 02:04:36;;;;;;;8.10;3.80;;;15.40;99.90;;;;;;7285344;19;20190;-83
2023/07/05 02:07:06;;;;;;;11.27;4.03;;;15.40;99.90;;;;;;7286278;19;20695;-81
2023/07/05 02:09:37;;;;;;;12.80;4.10;;;15.30;99.90;;;;;;7285186;19;20210;-82
2023/07/05 02:12:04;;;;;;;11.40;3.93;;;15.30;99.90;;;;;;7286140;19;20194;-82
2023/07/05 02:14:31;;;;;;;11.97;3.97;;;15.40;99.90;;;;;;7286020;19;20302;-81
2023/07/05 02:16:58;;;;;;;9.93;4.10;;;15.50;99.90;;;;;;7285813;19;20835;-82
2023/07/05 02:19:23;;;;;;;10.77;3.90;;;15.50;99.90;;;;;;7283533;19;20192;-82
2023/07/05 02:21:50;;;;;;;9.50;3.80;;;15.50;99.90;;;;;;7282552;19;20187;-81
2023/07/05 02:24:16;;;;;;;11.50;4.13;;;15.50;99.90;;;;;;7280371;19;20560;-83
2023/07/05 02:26:41;;;;;;;12.57;4.57;;;15.60;99.90;;;;;;7281007;19;20183;-82
2023/07/05 02:29:07;;;;;;;11.60;4.90;;;15.60;99.90;;;;;;7305365;19;20220;-81
2023/07/05 02:31:34;;;;;;;10.53;4.60;;;15.70;99.90;;;;;;7283795;19;20195;-82
2023/07/05 02:34:00;;;;;;;12.33;4.63;;;15.60;99.90;;;;;;7282832;19;20203;-82
2023/07/05 02:36:26;;;;;;;14.63;4.70;;;15.50;99.90;;;;;;7285038;19;20625;-82
2023/07/05 02:38:54;;;;;;;14.67;4.83;;;15.50;99.90;;;;;;7285300;19;20197;-82
2023/07/05 02:41:20;;;;;;;11.13;4.40;;;15.40;99.90;;;;;;7279932;19;20649;-82
2023/07/05 02:43:46;;;;;;;12.07;4.87;;;15.40;99.90;;;;;;7284672;19;20898;-82
2023/07/05 02:46:13;;;;;;;11.40;4.33;;;15.30;99.90;;;;;;7283393;19;20553;-81
2023/07/05 02:48:39;;;;;;;12.17;4.73;;;15.20;99.90;;;;;;7295028;19;20645;-81
2023/07/05 02:51:05;;;;;;;11.47;4.80;;;15.20;99.90;;;;;;7305676;19;20181;-83
2023/07/05 02:53:30;;;;;;;11.23;4.87;;;15.10;99.90;;;;;;7283357;19;20195;-81
2023/07/05 02:55:56;;;;;;;11.53;4.73;;;15.00;99.90;;;;;;7283280;19;20697;-81
2023/07/05 02:58:22;;;;;;;12.87;5.27;;;14.90;99.90;;;;;;7283348;19;20192;-81
2023/07/05 03:00:48;;;;;;;13.93;5.70;;;14.90;99.90;;;;;;7283328;19;20642;-81
2023/07/05 03:03:14;;;;;;;11.77;5.20;;;14.80;99.90;;;;;;7283290;19;20193;-83
2023/07/05 03:05:40;;;;;;;12.20;5.63;;;14.90;99.90;;;;;;7285459;19;20183;-81
2023/07/05 03:08:06;;;;;;;16.37;5.70;;;15.00;99.90;;;;;;7305640;19;20190;-82
2023/07/05 03:10:36;;;;;;;11.17;5.20;;;14.90;99.90;;;;;;7284532;19;20183;-82
2023/07/05 03:13:02;;;;;;;11.63;5.00;;;15.10;99.90;;;;;;7291116;19;20304;-82
2023/07/05 03:15:28;;;;;;;10.67;5.53;;;15.10;99.90;;;;;;7289768;19;20209;-83
2023/07/05 03:17:53;;;;;;;11.97;5.87;;;15.20;99.90;;;;;;7291854;19;20203;-83
2023/07/05 03:20:19;;;;;;;12.13;5.73;;;15.20;99.90;;;;;;7290826;19;20210;-82
2023/07/05 03:22:45;;;;;;;13.80;5.20;;;15.20;99.90;;;;;;7290317;19;20187;-83
2023/07/05 03:25:11;;;;;;;13.03;4.83;;;15.20;99.90;;;;;;7291566;19;20195;-82
2023/07/05 03:27:37;;;;;;;12.73;4.97;;;15.20;99.90;;;;;;7311265;19;20259;-82
2023/07/05 03:30:04;;;;;;;13.70;5.30;;;15.20;99.90;;;;;;7291010;19;20190;-82
2023/07/05 03:32:30;;;;;;;14.60;5.10;;;15.00;99.90;;;;;;7291286;19;20193;-82
2023/07/05 03:34:55;;;;;;;14.50;4.33;;;14.90;99.90;;;;;;7290323;19;20196;-82
2023/07/05 03:37:21;;;;;;;12.07;4.30;;;14.90;99.90;;;;;;7288518;19;20196;-77
2023/07/05 03:39:51;;;;;;;11.73;4.53;;;14.80;99.90;;;;;;7287954;19;20188;-77
2023/07/05 03:42:17;;;;;;;14.13;4.67;;;14.80;99.90;;;;;;7285439;19;20227;-78
2023/07/05 03:44:43;;;;;;;14.33;4.43;;;14.90;99.90;;;;;;7286881;19;20649;-78
2023/07/05 03:47:08;;;;;;;12.73;4.60;;;15.00;99.90;;;;;;7300454;19;20208;-77
2023/07/05 03:49:34;;;;;;;11.87;4.57;;;15.00;99.90;;;;;;7304169;19;20789;-77
2023/07/05 03:52:00;;;;;;;11.90;4.47;;;15.10;99.90;;;;;;7286463;19;20218;-78
2023/07/05 03:54:28;;;;;;;11.87;4.07;;;15.00;99.90;;;;;;7287507;19;20190;-78
2023/07/05 03:56:53;;;;;;;11.77;4.10;;;15.10;99.90;;;;;;7285922;19;20196;-77
2023/07/05 03:59:19;;;;;;;10.03;3.37;;;15.10;99.90;;;;;;7286584;19;20788;-77
2023/07/05 04:01:45;;;;;;;14.63;4.00;;;15.10;99.90;;;;;;7286535;19;20187;-77
2023/07/05 04:04:10;;;;;;;10.40;4.03;;;15.10;99.90;;;;;;7286451;19;20193;-78
2023/07/05 04:06:36;;;;;;;13.47;3.90;;;15.00;99.90;;;;;;7307556;19;20227;-78
2023/07/05 04:09:02;;;;;;;11.90;3.87;;;14.90;99.90;;;;;;7287232;19;20261;-78
2023/07/05 04:11:27;;;;;;;8.33;3.50;;;15.00;99.90;;;;;;7284577;19;20854;-77
2023/07/05 04:13:54;;;;;;;12.87;3.67;;;15.10;99.90;;;;;;7286171;19;20540;-77
2023/07/05 04:16:23;;;;;;;11.13;3.73;;;15.10;99.90;;;;;;7285689;19;20662;-77
2023/07/05 04:18:51;;;;;;;10.13;3.30;;;15.20;99.90;;;;;;7284567;19;20569;-77
2023/07/05 04:21:18;;;;;;;13.90;3.20;;;15.30;99.90;;;;;;7284938;19;20769;-77
2023/07/05 04:23:43;;;;;;;11.10;2.90;;;15.20;99.90;;;;;;7284844;19;20190;-77
2023/07/05 04:26:12;;;;;;;9.90;3.20;;;15.20;99.90;;;;;;7292977;19;20189;-76
2023/07/05 04:28:39;;;;;;;9.87;2.63;;;15.30;99.90;;;;;;7304753;19;20211;-77
2023/07/05 04:31:10;;;;;;;9.90;2.57;;;15.30;99.90;;;;;;7307703;19;20187;-76
2023/07/05 04:33:36;;;;;;;12.77;2.60;;;15.30;99.90;;;;;;7286422;19;20203;-76
2023/07/05 04:36:02;;;;;;;10.37;2.47;;;15.30;99.90;;;;;;7286072;19;20638;-78
2023/07/05 04:38:28;;;;;;;10.03;2.50;;;15.30;99.90;;;;;;7285427;19;20755;-77
2023/07/05 04:40:55;;;;;;;11.23;2.77;;;15.30;99.90;;;;;;7285460;19;20185;-77
2023/07/05 04:43:21;;;;;;;10.10;2.67;;;15.30;99.90;;;;;;7285558;19;20201;-77
2023/07/05 04:45:51;;;;;;;10.23;2.60;;;15.30;99.90;;;;;;7285774;19;20185;-77
2023/07/05 04:48:17;;;;;;;11.77;2.57;;;15.30;99.90;;;;;;7284134;19;20202;-77
2023/07/05 04:50:43;;;;;;;11.20;2.70;;;15.30;99.90;;;;;;7283564;19;20198;-76
2023/07/05 04:53:09;;;;;;;11.67;2.60;;;15.20;99.90;;;;;;7292562;19;20549;-77
2023/07/05 04:55:35;;;;;;;14.33;3.27;;;15.30;99.90;;;;;;7306564;19;20194;-76
2023/07/05 04:58:03;;;;;;;10.33;2.63;;;15.30;99.90;;;;;;7284562;19;20195;-76
2023/07/05 05:00:30;;;;;;;10.27;2.53;;;15.30;99.90;;;;;;7284106;19;20203;-77
2023/07/05 05:02:55;;;;;;;11.17;2.73;;;15.30;99.90;;;;;;7283742;19;20204;-77
2023/07/05 05:05:21;;;;;;;11.00;2.43;;;15.40;99.90;;;;;;7284999;19;20683;-81
2023/07/05 05:07:47;;;;;;;10.17;2.23;;;15.50;99.90;;;;;;7284247;19;20195;-76
2023/07/05 05:10:12;;;;;;;9.47;2.10;;;15.50;99.90;;;;;;7284118;19;20194;-77
2023/07/05 05:12:38;;;;;;;8.33;2.30;;;15.50;99.90;;;;;;7303364;19;20196;-76
2023/07/05 05:15:04;;;;;;;11.13;2.20;;;15.50;99.90;;;;;;7297587;19;20185;-76
2023/07/05 05:17:30;;;;;;;9.27;2.37;;;15.40;99.90;;;;;;7287177;19;20203;-77
2023/07/05 05:19:56;;;;;;;8.77;2.30;;;15.40;99.90;;;;;;7284459;19;20211;-78
2023/07/05 05:22:22;;;;;;;10.20;2.40;;;15.50;99.90;;;;;;7288279;19;20184;-77
2023/07/05 05:24:47;;;;;;;6.90;2.20;;;15.50;99.90;;;;;;7287171;19;20187;-77
2023/07/05 05:27:13;;;;;;;10.37;2.77;;;15.50;99.90;;;;;;7284534;19;20191;-76
2023/07/05 05:29:39;;;;;;;11.00;2.77;;;15.50;99.90;;;;;;7290287;19;20191;-76
2023/07/05 05:32:05;;;;;;;12.57;2.50;;;15.60;99.90;;;;;;7299154;19;20203;-76
2023/07/05 05:34:30;;;;;;;11.87;2.50;;;15.70;99.90;;;;;;7282566;19;20197;-76
2023/07/05 05:36:56;;;;;;;12.57;2.30;;;15.70;99.90;;;;;;7281334;19;20210;-76
2023/07/05 05:39:23;;;;;;;8.13;2.10;;;15.70;99.90;;;;;;7281619;19;20199;-76
2023/07/05 05:41:50;;;;;;;8.80;2.00;;;15.80;99.90;;;;;;7282570;19;20202;-75
2023/07/05 05:44:15;;;;;;;10.23;2.40;;;16.30;99.90;;;;;;7282245;19;21852;-76
2023/07/05 05:46:41;;;;;;;7.97;2.20;;;16.70;99.90;;;;;;7282559;19;20203;-75
2023/07/05 05:49:07;;;;;;;12.47;3.53;;;17.00;99.90;;;;;;7304557;19;20977;-75
2023/07/05 05:51:32;;;;;;;13.80;3.13;;;16.90;99.90;;;;;;7283536;19;20190;-75
2023/07/05 05:53:58;;;;;;;10.03;2.50;;;16.80;99.90;;;;;;7283476;19;20193;-76
2023/07/05 05:56:24;;;;;;;10.77;2.40;;;16.80;99.90;;;;;;7282500;19;20184;-75
2023/07/05 05:58:49;;;;;;;10.90;2.53;;;16.80;99.90;;;;;;7280557;19;20205;-76
2023/07/05 06:01:15;;;;;;;6.87;2.00;;;16.60;99.90;;;;;;7280666;19;20216;-75
2023/07/05 06:03:41;;;;;;;10.47;2.37;;;16.50;99.90;;;;;;7280305;19;20612;-75
2023/07/05 06:06:07;;;;;;;9.93;2.40;;;16.80;99.90;;;;;;7302239;19;20188;-76
2023/07/05 06:08:33;;;;;;;8.07;2.40;;;17.30;99.90;;;;;;7282076;19;20189;-75
2023/07/05 06:11:00;;;;;;;5.73;1.80;;;19.00;99.90;;;;;;7281414;19;20631;-76
2023/07/05 06:13:27;;;;;;;10.13;2.40;;;20.40;99.90;;;;;;7280009;19;20177;-75
2023/07/05 06:15:57;;;;;;;7.57;1.90;;;21.20;99.90;;;;;;7279931;19;20185;-75
2023/07/05 06:18:24;;;;;;;8.17;2.00;;;22.00;99.90;;;;;;7282209;19;20183;-74
2023/07/05 06:20:50;;;;;;;5.17;1.50;;;22.10;99.90;;;;;;7279875;19;20210;-75
2023/07/05 06:23:16;;;;;;;8.83;2.27;;;22.90;99.90;;;;;;7281350;19;20703;-74
2023/07/05 06:25:47;;;;;;;6.10;1.87;;;23.50;99.90;;;;;;7279138;19;20184;-75
2023/07/05 06:28:13;;;;;;;8.50;1.40;;;23.60;99.90;;;;;;7280905;19;20188;-76
2023/07/05 06:30:38;;;;;;;6.60;1.77;;;23.40;99.90;;;;;;7293116;19;20191;-76
2023/07/05 06:33:04;;;;;;;5.90;1.50;;;22.90;99.90;;;;;;7295104;19;20189;-76
2023/07/05 06:35:31;;;;;;;6.40;1.60;;;23.00;99.90;;;;;;7282352;19;20583;-76
2023/07/05 06:37:56;;;;;;;5.33;1.73;;;23.60;99.90;;;;;;7280710;19;20185;-77
2023/07/05 06:40:22;;;;;;;8.37;1.90;;;24.30;99.90;;;;;;7281837;19;20210;-77
2023/07/05 06:42:48;;;;;;;6.83;1.90;;;24.30;99.90;;;;;;7280812;19;20189;-76
2023/07/05 06:45:19;;;;;;;6.60;1.60;;;23.30;99.90;;;;;;7279045;19;20195;-77
2023/07/05 06:47:50;;;;;;;6.53;1.70;;;23.50;99.90;;;;;;7281035;19;20626;-76
2023/07/05 06:50:16;;;;;;;6.47;1.73;;;22.40;99.90;;;;;;7278342;19;20644;-77
2023/07/05 06:52:41;;;;;;;8.40;2.00;;;21.60;99.90;;;;;;7279248;19;20181;-76
2023/07/05 06:55:07;;;;;;;10.13;2.50;;;21.30;99.90;;;;;;7302890;19;20597;-77
2023/07/05 06:57:33;;;;;;;13.90;2.07;;;21.60;99.90;;;;;;7280909;19;20201;-76
2023/07/05 06:59:59;;;;;;;11.80;2.10;;;22.00;99.90;;;;;;7280553;19;20535;-76
2023/07/05 07:02:25;;;;;;;10.47;1.80;;;22.20;99.90;;;;;;7280320;19;20264;-76
2023/07/05 07:04:50;;;;;;;7.23;1.70;;;22.90;99.90;;;;;;7279514;19;20213;-76
2023/07/05 07:07:16;;;;;;;10.37;2.10;;;22.40;99.90;;;;;;7277721;19;20189;-77
2023/07/05 07:09:42;;;;;;;8.73;1.70;;;22.50;99.90;;;;;;7278829;19;20180;-76
2023/07/05 07:12:09;;;;;;;12.67;3.10;;;21.70;99.90;;;;;;7302183;19;20202;-76
2023/07/05 07:14:34;;;;;;;10.73;2.00;;;21.90;99.90;;;;;;7279215;19;20173;-76
2023/07/05 07:17:00;;;;;;;8.60;2.10;;;22.70;99.90;;;;;;7277788;19;20208;-76
2023/07/05 07:19:26;;;;;;;11.53;1.97;;;23.00;99.90;;;;;;7280567;19;20192;-76
2023/07/05 07:21:51;;;;;;;9.67;2.07;;;23.80;99.90;;;;;;7278566;19;20248;-76
2023/07/05 07:24:17;;;;;;;9.87;2.60;;;23.90;99.90;;;;;;7278147;19;20209;-76
2023/07/05 07:26:43;;;;;;;11.30;2.23;;;24.30;99.90;;;;;;7278161;19;20196;-76
2023/07/05 07:29:10;;;;;;;9.10;2.63;;;23.80;99.90;;;;;;7296064;19;20181;-76
2023/07/05 07:31:35;;;;;;;12.93;1.80;;;23.80;99.90;;;;;;7300164;19;20245;-76
2023/07/05 07:34:04;;;;;;;11.40;1.93;;;24.10;99.90;;;;;;7280689;19;20770;-76
2023/07/05 07:36:31;;;;;;;12.57;2.50;;;23.50;99.90;;;;;;7280027;19;20184;-76
2023/07/05 07:38:58;;;;;;;11.50;1.77;;;24.50;99.90;;;;;;7278832;19;20274;-76
2023/07/05 07:41:33;;;;;;;9.53;1.93;;;24.10;99.90;;;;;;7278871;19;20185;-76
2023/07/05 07:44:01;;;;;;;10.87;2.43;;;24.70;99.90;;;;;;7279308;19;20218;-76
2023/07/05 07:46:29;;;;;;;9.60;2.03;;;24.60;99.90;;;;;;7278942;19;20185;-75
2023/07/05 07:48:57;;;;;;;8.47;1.50;;;24.40;99.90;;;;;;7278969;19;20192;-75
2023/07/05 07:51:25;;;;;;;13.15;1.90;;;25.00;99.90;;;;;;7276339;19;20181;-76
2023/07/05 07:53:51;;;;;;;10.50;1.77;;;25.80;99.90;;;;;;7279134;19;20196;-76
2023/07/05 07:56:21;;;;;;;8.88;1.92;;;25.80;99.90;;;;;;7279210;19;20181;-77
2023/07/05 07:58:49;;;;;;;11.27;2.08;;;26.60;99.90;;;;;;7286428;19;20189;-76
2023/07/05 08:01:14;;;;;;;10.35;1.90;;;26.20;99.90;;;;;;7285095;19;20189;-76
2023/07/05 08:03:40;;;;;;;10.35;2.10;;;25.30;99.90;;;;;;7284276;19;20185;-76
2023/07/05 08:06:06;;;;;;;9.27;1.93;;;23.90;99.90;;;;;;7308980;19;20185;-75
2023/07/05 08:08:36;;;;;;;9.10;1.47;;;24.10;99.90;;;;;;7284316;19;20180;-75
2023/07/05 08:11:03;;;;;;;11.50;1.90;;;23.50;99.90;;;;;;7285310;19;20193;-75
2023/07/05 08:13:30;;;;;;;7.77;1.90;;;23.40;99.90;;;;;;7285925;19;20190;-75
2023/07/05 08:15:57;;;;;;;10.37;1.70;;;23.60;99.90;;;;;;7284948;19;20196;-76
2023/07/05 08:18:22;;;;;;;14.50;2.60;;;24.20;99.90;;;;;;7285707;19;20181;-76
2023/07/05 08:20:48;;;;;;;11.53;1.80;;;24.00;99.90;;;;;;7284337;19;20532;-76
2023/07/05 08:23:14;;;;;;;8.73;1.40;;;24.30;99.90;;;;;;7284910;19;20185;-76
2023/07/05 08:25:42;;;;;;;10.90;1.67;;;24.10;99.90;;;;;;7293926;19;20656;-76
2023/07/05 08:28:08;;;;;;;8.93;1.63;;;23.30;99.90;;;;;;7307087;19;20599;-76
2023/07/05 08:30:34;;;;;;;10.90;2.00;;;23.10;99.90;;;;;;7284551;19;20205;-76
2023/07/05 08:33:02;;;;;;;7.83;1.87;;;23.50;99.90;;;;;;7284961;19;20223;-76
2023/07/05 08:35:27;;;;;;;16.60;2.67;;;23.70;99.90;;;;;;7282798;19;20200;-77
2023/07/05 08:37:53;;;;;;;10.77;1.57;;;24.60;99.90;;;;;;7281735;19;20189;-77
2023/07/05 08:40:19;;;;;;;9.80;1.67;;;24.70;99.90;;;;;;7282809;19;20185;-77
2023/07/05 08:43:01;;;;;;;9.10;1.60;;;24.40;99.90;;;;;;7282921;19;20756;-77
2023/07/05 08:45:35;;;;;;;8.00;1.60;;;24.60;99.90;;;;;;7282598;19;20848;-77
2023/07/05 08:48:04;;;;;;;11.27;2.23;;;23.10;99.90;;;;;;7283744;19;20864;-78
2023/07/05 08:50:37;;;;;;;8.67;1.67;;;23.90;99.90;;;;;;7282677;19;20906;-75
2023/07/05 08:53:13;;;;;;;8.70;1.40;;;24.80;99.90;;;;;;7283183;19;20550;-75
2023/07/05 08:56:03;;;;;;;8.15;1.60;;;26.00;99.90;;;;;;7274307;19;20184;-76
2023/07/05 08:59:01;;;;;;;11.00;2.50;;;26.40;99.60;;;;;;7281191;19;20204;-76
2023/07/05 09:01:29;;;;;;;10.15;1.77;;;27.40;99.90;;;;;;7178381;19;2004698;-76
2023/07/05 09:03:58;;;;;;;10.73;1.92;;;26.90;99.30;;;;;;7281002;19;20652;-76
2023/07/05 09:06:54;;;;;;;11.15;1.75;;;26.60;99.80;;;;;;7280979;19;20851;-75
2023/07/05 09:09:38;;;;;;;9.95;1.60;;;26.80;99.90;;;;;;7177230;19;2004757;-75
2023/07/05 09:12:16;;;;;;;10.93;1.98;;;26.80;99.50;;;;;;7283737;19;20643;-75
2023/07/05 09:15:31;;;;;;;10.52;1.70;;;26.00;99.90;;;;;;7260335;19;20257;-76
2023/07/05 09:18:16;;;;;;;13.80;1.90;;;25.50;99.90;;;;;;7177783;19;2004598;-76
2023/07/05 09:20:48;;;;;;;11.13;1.50;;;26.30;99.90;;;;;;7259180;19;20184;-76
2023/07/05 09:23:23;;;;;;;10.77;2.00;;;27.30;98.80;;;;;;7281343;19;21616;-76
2023/07/05 09:25:55;;;;;;;7.93;2.15;;;27.10;99.80;;;;;;7280472;19;20185;-76
2023/07/05 09:28:36;;;;;;;9.23;1.58;;;27.40;97.70;;;;;;7282039;19;20292;-76
2023/07/05 09:31:10;;;;;;;10.23;1.90;;;26.00;99.90;;;;;;7282548;19;20664;-76
2023/07/05 09:33:45;;;;;;;8.82;1.70;;;26.00;99.90;;;;;;7280820;19;20181;-77
2023/07/05 09:36:20;;;;;;;7.78;1.83;;;27.20;99.50;;;;;;7260460;19;20188;-76
2023/07/05 09:38:51;;;;;;;10.57;1.70;;;26.80;99.10;;;;;;7281062;19;20204;-76
2023/07/05 09:41:21;;;;;;;5.88;1.55;;;25.90;99.90;;;;;;7280981;19;20314;-77
2023/07/05 09:43:47;;;;;;;8.60;1.85;;;26.70;99.90;;;;;;7278956;19;20181;-77
2023/07/05 09:46:30;;;;;;;9.15;1.60;;;27.50;99.50;;;;;;7278525;19;20214;-75
2023/07/05 09:48:56;;;;;;;7.63;1.88;;;26.40;99.90;;;;;;7281271;19;20195;-75
2023/07/05 09:51:22;;;;;;;9.55;1.77;;;26.90;99.90;;;;;;7281129;19;20189;-76
2023/07/05 09:53:53;;;;;;;10.18;1.88;;;26.80;99.90;;;;;;7280139;19;20195;-76
2023/07/05 09:56:28;;;;;;;5.97;1.48;;;27.30;98.90;;;;;;7279853;19;20727;-76
2023/07/05 09:59:14;;;;;;;6.45;1.63;;;27.90;97.70;;;;;;7279939;19;20192;-76
2023/07/05 10:01:48;;;;;;;7.95;2.00;;;26.40;97.80;;;;;;7270994;19;20221;-76
2023/07/05 10:04:16;;;;;;;7.88;1.88;;;25.90;99.30;;;;;;7280636;19;20696;-76
2023/07/05 10:06:46;;;;;;;7.00;1.50;;;28.00;97.70;;;;;;7279338;19;20180;-76
2023/07/05 10:09:15;;;;;;;8.27;2.08;;;29.60;93.90;;;;;;7279775;19;20197;-77
2023/07/05 10:11:47;;;;;;;9.07;1.60;;;29.20;92.50;;;;;;7280865;19;20181;-77
2023/07/05 10:14:16;;;;;;;8.88;1.75;;;28.60;94.60;;;;;;7280545;19;20180;-76
2023/07/05 10:16:53;;;;;;;9.63;2.10;;;27.70;97.50;;;;;;7281013;19;20185;-76
2023/07/05 10:19:30;;;;;;;7.40;1.70;;;27.60;98.30;;;;;;7278599;19;20691;-76
2023/07/05 10:22:20;;;;;;;7.75;1.50;;;29.00;98.50;;;;;;7279148;19;20189;-76
2023/07/05 10:24:49;;;;;;;8.80;1.77;;;30.60;94.50;;;;;;7178868;19;2005052;-76
2023/07/05 10:27:15;;;;;;;6.75;1.60;;;30.50;88.10;;;;;;7279377;19;20193;-76
2023/07/05 10:29:41;;;;;;;8.05;1.85;;;28.50;90.60;;;;;;7278047;19;20195;-76
2023/07/05 10:32:18;;;;;;;4.55;1.50;;;28.40;94.70;;;;;;7301722;19;20194;-76
2023/07/05 10:34:44;;;;;;;7.78;1.90;;;29.10;92.60;;;;;;7177372;19;2005021;-77
2023/07/05 10:37:33;;;;;;;7.30;1.50;;;28.60;92.50;;;;;;7285885;19;20184;-76
2023/07/05 10:40:09;;;;;;;8.88;1.95;;;27.70;93.30;;;;;;7279306;19;20218;-75
2023/07/05 10:42:41;;;;;;;6.63;1.45;;;27.50;94.30;;;;;;7279373;19;20180;-76
2023/07/05 10:45:15;;;;;;;6.05;1.92;;;28.80;92.60;;;;;;7278212;19;20272;-75
2023/07/05 10:47:42;;;;;;;5.90;1.38;;;28.90;88.00;;;;;;7257862;19;20185;-76
2023/07/05 10:50:09;;;;;;;7.25;1.40;;;28.80;90.60;;;;;;7301291;19;20189;-76
2023/07/05 10:52:37;;;;;;;6.95;1.35;;;28.80;87.70;;;;;;7279939;19;20296;-76
2023/07/05 10:55:07;;;;;;;8.60;1.33;;;28.80;86.60;;;;;;7279029;19;20218;-76
2023/07/05 10:57:49;;;;;;;7.03;1.73;;;27.10;86.20;;;;;;7279084;19;20300;-76
2023/07/05 11:00:29;;;;;;;7.22;1.60;;;25.70;96.40;;;;;;7175300;19;2004579;-76
2023/07/05 11:03:21;;;;;;;5.00;1.50;;;24.70;99.90;;;;;;7279011;19;20192;-76
2023/07/05 11:05:51;;;;;;;9.15;2.10;;;24.10;99.90;;;;;;7175851;19;2004625;-75
2023/07/05 11:08:29;;;;;;;5.97;1.13;;;24.00;99.90;;;;;;7278888;19;20407;-76
2023/07/05 11:10:57;;;;;;;5.97;1.38;;;25.70;99.90;;;;;;7277994;19;20189;-75
2023/07/05 11:13:23;;;;;;;7.13;1.35;;;27.60;99.90;;;;;;7278774;19;20192;-76
2023/07/05 11:15:49;;;;;;;4.85;1.45;;;27.80;99.90;;;;;;7277957;19;20184;-75
2023/07/05 11:18:20;;;;;;;7.63;1.30;;;27.00;99.90;;;;;;7279336;19;20248;-76
2023/07/05 11:20:55;;;;;;;9.10;1.55;;;26.50;99.90;;;;;;7276405;19;20644;-76
2023/07/05 11:23:43;;;;;;;6.88;1.30;;;26.50;99.90;;;;;;7277418;19;20529;-76
2023/07/05 11:26:29;;;;;;;6.05;1.25;;;26.80;99.90;;;;;;7271943;19;20184;-75
2023/07/05 11:28:55;;;;;;;5.18;1.48;;;26.70;99.90;;;;;;7278027;19;20212;-75
2023/07/05 11:31:27;;;;;;;5.53;1.55;;;27.70;99.90;;;;;;7277971;19;20185;-75
2023/07/05 11:34:23;;;;;;;8.13;1.65;;;28.80;99.30;;;;;;7285059;19;20628;-75
2023/07/05 11:36:50;;;;;;;6.30;1.33;;;28.40;98.70;;;;;;7182857;19;2004465;-76
2023/07/05 11:39:36;;;;;;;8.55;1.63;;;28.90;97.70;;;;;;7286098;19;20189;-76
2023/07/05 11:44:55;;;;;;;5.25;1.55;;;27.90;97.20;;;;;;7273715;19;20184;-76
2023/07/05 11:47:23;;;;;;;10.68;1.80;;;27.20;99.40;;;;;;7283896;19;20614;-76
2023/07/05 11:50:09;;;;;;;8.75;1.70;;;26.30;99.90;;;;;;7286044;19;20184;-76
2023/07/05 11:53:06;;;;;;;5.90;1.70;;;26.00;99.90;;;;;;7284815;19;20180;-75
2023/07/05 11:55:34;;;;;;;8.80;1.60;;;26.10;99.90;;;;;;7181215;19;2004487;-75
2023/07/05 11:58:08;;;;;;;7.75;1.98;;;26.70;99.90;;;;;;7285605;19;20641;-76
2023/07/05 12:00:37;;;;;;;9.02;1.77;;;26.60;99.90;;;;;;7351466;19;20216;-76
2023/07/05 12:03:13;;;;;;;8.43;1.90;;;26.60;99.90;;;;;;7390435;19;20241;-75
2023/07/05 12:05:39;;;;;;;5.78;1.70;;;26.70;99.90;;;;;;7393408;19;20137;-76
2023/07/05 12:08:13;;;;;;;8.85;1.52;;;27.30;99.90;;;;;;7395667;19;20515;-76
2023/07/05 12:10:44;;;;;;;9.85;1.95;;;26.80;99.90;;;;;;7392409;19;20138;-75
2023/07/05 12:13:19;;;;;;;8.77;2.00;;;26.20;99.90;;;;;;7394780;19;20138;-76
2023/07/05 12:15:45;;;;;;;7.57;1.80;;;26.10;99.90;;;;;;7394374;19;20136;-76
2023/07/05 12:18:14;;;;;;;8.30;2.00;;;26.00;99.90;;;;;;7395335;19;20122;-76
2023/07/05 12:20:42;;;;;;;7.47;1.90;;;25.70;99.90;;;;;;7392193;19;20153;-76
2023/07/05 12:23:16;;;;;;;6.97;1.70;;;25.20;99.90;;;;;;7394668;19;20129;-76
2023/07/05 12:25:50;;;;;;;6.10;1.60;;;24.70;99.90;;;;;;7393868;19;20129;-76
2023/07/05 12:28:25;;;;;;;8.68;1.75;;;24.50;99.90;;;;;;7284460;19;20286;-76
2023/07/05 12:31:03;;;;;;;7.87;1.87;;;24.30;99.90;;;;;;7282567;19;20184;-76
2023/07/05 12:33:34;;;;;;;5.03;1.70;;;23.80;99.90;;;;;;7283444;19;20188;-76
2023/07/05 12:36:20;;;;;;;11.50;1.80;;;23.70;99.90;;;;;;7282058;19;20174;-76
2023/07/05 12:38:48;;;;;;;6.40;1.90;;;23.50;99.90;;;;;;7180795;19;2004585;-77
2023/07/05 12:41:25;;;;;;;6.23;1.70;;;23.30;99.90;;;;;;7281653;19;20185;-76
2023/07/05 12:44:01;;;;;;;7.30;1.73;;;23.20;99.90;;;;;;7282416;19;20188;-77
2023/07/05 12:46:28;;;;;;;7.50;1.77;;;22.90;99.90;;;;;;7283091;19;20426;-76
2023/07/05 12:48:55;;;;;;;11.40;1.90;;;22.90;99.90;;;;;;7284057;19;20200;-76
2023/07/05 12:51:23;;;;;;;6.63;1.60;;;23.10;99.90;;;;;;7280130;19;20266;-77
2023/07/05 12:53:51;;;;;;;6.53;1.60;;;23.40;99.90;;;;;;7281403;19;20413;-76
2023/07/05 12:56:20;;;;;;;4.17;1.67;;;23.70;99.90;;;;;;7282325;19;20276;-74